Time,TemperatureF,DewpointF,PressureIn,WindDirection,WindDirectionDegrees,WindSpeedMPH,WindSpeedGustMPH,Humidity,HourlyPrecipIn,Conditions,Clouds,dailyrainin,SolarRadiationWatts/m^2,SoftwareType,DateUTC
2013-03-21 00:01:00,25.0,22.0,-100.00,NW,313,4.0,15.0,89,0.00,,,0.00,0.000000,,2013-03-21 04:01:00,
2013-03-21 00:23:00,25.0,22.0,-100.00,NW,313,4.0,15.0,89,0.00,,,0.00,0.000000,,2013-03-21 04:23:00,
2013-03-21 00:33:00,25.0,22.0,-100.00,NW,313,4.0,15.0,89,0.00,,,0.00,0.000000,,2013-03-21 04:33:00,
2013-03-21 00:43:00,25.0,22.0,-100.00,NW,313,4.0,15.0,89,0.00,,,0.00,0.000000,,2013-03-21 04:43:00,
2013-03-21 00:53:00,25.0,22.0,-100.00,NW,313,4.0,15.0,89,0.00,,,0.00,0.000000,,2013-03-21 04:53:00,
2013-03-21 01:01:00,23.0,21.0,-100.00,NNE,20,5.0,11.0,93,0.00,,,0.00,0.000000,,2013-03-21 05:01:00,
2013-03-21 01:22:00,23.0,21.0,-100.00,NNE,20,5.0,11.0,93,0.00,,,0.00,0.000000,,2013-03-21 05:22:00,
2013-03-21 01:33:00,23.0,21.0,-100.00,NNE,20,5.0,11.0,93,0.00,,,0.00,0.000000,,2013-03-21 05:33:00,
2013-03-21 01:44:00,23.0,21.0,-100.00,NNE,20,5.0,11.0,93,0.00,,,0.00,0.000000,,2013-03-21 05:44:00,
2013-03-21 01:52:00,23.0,21.0,-100.00,NNE,20,5.0,11.0,93,0.00,,,0.00,0.000000,,2013-03-21 05:52:00,
2013-03-21 02:01:00,21.0,15.0,-100.00,NNE,33,6.0,10.0,76,0.00,,,0.00,0.000000,,2013-03-21 06:01:00,
2013-03-21 02:23:00,21.0,15.0,-100.00,NNE,33,6.0,10.0,76,0.00,,,0.00,0.000000,,2013-03-21 06:23:00,
2013-03-21 02:32:00,21.0,15.0,-100.00,NNE,33,6.0,10.0,76,0.00,,,0.00,0.000000,,2013-03-21 06:32:00,
2013-03-21 02:42:00,21.0,15.0,-100.00,NNE,33,6.0,10.0,76,0.00,,,0.00,0.000000,,2013-03-21 06:42:00,
2013-03-21 02:52:00,21.0,15.0,-100.00,NNE,33,6.0,10.0,76,0.00,,,0.00,0.000000,,2013-03-21 06:52:00,
2013-03-21 03:01:00,19.0,14.0,-100.00,NNE,20,5.0,11.0,80,0.00,,,0.00,0.000000,,2013-03-21 07:01:00,
2013-03-21 03:32:00,19.0,14.0,-100.00,NNE,20,5.0,11.0,80,0.00,,,0.00,0.000000,,2013-03-21 07:32:00,
2013-03-21 03:43:00,19.0,14.0,-100.00,NNE,20,5.0,11.0,80,0.00,,,0.00,0.000000,,2013-03-21 07:43:00,
2013-03-21 03:53:00,19.0,14.0,-100.00,NNE,20,5.0,11.0,80,0.00,,,0.00,0.000000,,2013-03-21 07:53:00,
2013-03-21 04:01:00,18.0,13.0,-100.00,NNE,28,5.0,10.0,80,0.00,,,0.00,0.000000,,2013-03-21 08:01:00,
2013-03-21 04:33:00,18.0,13.0,-100.00,NNE,28,5.0,10.0,80,0.00,,,0.00,0.000000,,2013-03-21 08:33:00,
2013-03-21 04:43:00,18.0,13.0,-100.00,NNE,28,5.0,10.0,80,0.00,,,0.00,0.000000,,2013-03-21 08:43:00,
2013-03-21 04:52:00,18.0,13.0,-100.00,NNE,28,5.0,10.0,80,0.00,,,0.00,0.000000,,2013-03-21 08:52:00,
2013-03-21 05:01:00,17.0,13.0,-100.00,NNW,336,5.0,11.0,83,0.00,,,0.00,0.000000,,2013-03-21 09:01:00,
2013-03-21 05:33:00,17.0,13.0,-100.00,NNW,336,5.0,11.0,83,0.00,,,0.00,0.000000,,2013-03-21 09:33:00,
2013-03-21 05:43:00,17.0,13.0,-100.00,NNW,336,5.0,11.0,83,0.00,,,0.00,0.000000,,2013-03-21 09:43:00,
2013-03-21 05:53:00,17.0,13.0,-100.00,NNW,336,5.0,11.0,83,0.00,,,0.00,0.000000,,2013-03-21 09:53:00,
2013-03-21 06:01:00,16.0,12.0,-100.00,North,354,6.0,14.0,83,0.00,,,0.00,0.000000,,2013-03-21 10:01:00,
2013-03-21 06:23:00,16.0,12.0,-100.00,North,354,6.0,14.0,83,0.00,,,0.00,0.000000,,2013-03-21 10:23:00,
2013-03-21 06:34:00,16.0,12.0,-100.00,North,354,6.0,14.0,83,0.00,,,0.00,0.000000,,2013-03-21 10:34:00,
2013-03-21 06:43:00,16.0,12.0,-100.00,North,354,6.0,14.0,83,0.00,,,0.00,0.000000,,2013-03-21 10:43:00,
2013-03-21 06:53:00,16.0,12.0,-100.00,North,354,6.0,14.0,83,0.00,,,0.00,0.000000,,2013-03-21 10:53:00,
2013-03-21 07:01:00,13.0,6.0,-100.00,North,8,8.0,16.0,73,0.00,,,0.00,0.000000,,2013-03-21 11:01:00,
2013-03-21 07:33:00,13.0,6.0,-100.00,North,8,8.0,16.0,73,0.00,,,0.00,0.000000,,2013-03-21 11:33:00,
2013-03-21 07:43:00,13.0,6.0,-100.00,North,8,8.0,16.0,73,0.00,,,0.00,0.000000,,2013-03-21 11:43:00,
2013-03-21 07:53:00,13.0,6.0,-100.00,North,8,8.0,16.0,73,0.00,,,0.00,0.000000,,2013-03-21 11:53:00,
2013-03-21 08:01:00,12.0,5.0,-100.00,NW,319,6.0,16.0,74,0.00,,,0.00,15.000000,,2013-03-21 12:01:00,
2013-03-21 08:33:00,12.0,5.0,-100.00,NW,319,6.0,16.0,74,0.00,,,0.00,15.000000,,2013-03-21 12:33:00,
2013-03-21 08:43:00,12.0,5.0,-100.00,NW,319,6.0,16.0,74,0.00,,,0.00,15.000000,,2013-03-21 12:43:00,
2013-03-21 08:53:00,12.0,5.0,-100.00,NW,319,6.0,16.0,74,0.00,,,0.00,15.000000,,2013-03-21 12:53:00,
2013-03-21 09:01:00,14.0,7.0,-100.00,NNW,340,4.0,9.0,73,0.00,,,0.00,103.000000,,2013-03-21 13:01:00,
2013-03-21 09:33:00,14.0,7.0,-100.00,NNW,340,4.0,9.0,73,0.00,,,0.00,103.000000,,2013-03-21 13:33:00,
2013-03-21 09:43:00,14.0,7.0,-100.00,NNW,340,4.0,9.0,73,0.00,,,0.00,103.000000,,2013-03-21 13:43:00,
2013-03-21 09:53:00,14.0,7.0,-100.00,NNW,340,4.0,9.0,73,0.00,,,0.00,103.000000,,2013-03-21 13:53:00,
2013-03-21 10:01:00,18.0,4.0,-100.00,North,1,6.0,15.0,54,0.00,,,0.00,415.000000,,2013-03-21 14:01:00,
2013-03-21 10:32:00,18.0,4.0,-100.00,North,1,6.0,15.0,54,0.00,,,0.00,415.000000,,2013-03-21 14:32:00,
2013-03-21 10:43:00,18.0,4.0,-100.00,North,1,6.0,15.0,54,0.00,,,0.00,415.000000,,2013-03-21 14:43:00,
2013-03-21 10:52:00,18.0,4.0,-100.00,North,1,6.0,15.0,54,0.00,,,0.00,415.000000,,2013-03-21 14:52:00,
2013-03-21 11:01:00,17.0,7.0,-100.00,NNW,339,7.0,16.0,65,0.00,,,0.00,589.000000,,2013-03-21 15:01:00,
2013-03-21 11:33:00,17.0,7.0,-100.00,NNW,339,7.0,16.0,65,0.00,,,0.00,589.000000,,2013-03-21 15:33:00,
2013-03-21 11:43:00,17.0,7.0,-100.00,NNW,339,7.0,16.0,65,0.00,,,0.00,589.000000,,2013-03-21 15:43:00,
2013-03-21 11:53:00,17.0,7.0,-100.00,NNW,339,7.0,16.0,65,0.00,,,0.00,589.000000,,2013-03-21 15:53:00,
2013-03-21 12:01:00,19.0,7.0,-100.00,NNE,18,8.0,16.0,58,0.00,,,0.00,747.000000,,2013-03-21 16:01:00,
2013-03-21 12:33:00,19.0,7.0,-100.00,NNE,18,8.0,16.0,58,0.00,,,0.00,747.000000,,2013-03-21 16:33:00,
2013-03-21 12:42:00,19.0,7.0,-100.00,NNE,18,8.0,16.0,58,0.00,,,0.00,747.000000,,2013-03-21 16:42:00,
2013-03-21 12:53:00,19.0,7.0,-100.00,NNE,18,8.0,16.0,58,0.00,,,0.00,747.000000,,2013-03-21 16:53:00,
2013-03-21 13:01:00,21.0,10.0,-100.00,NNE,27,7.0,17.0,63,0.00,,,0.00,759.000000,,2013-03-21 17:01:00,
2013-03-21 13:33:00,21.0,10.0,-100.00,NNE,27,7.0,17.0,63,0.00,,,0.00,759.000000,,2013-03-21 17:33:00,
2013-03-21 13:43:00,21.0,10.0,-100.00,NNE,27,7.0,17.0,63,0.00,,,0.00,759.000000,,2013-03-21 17:43:00,
2013-03-21 13:53:00,21.0,10.0,-100.00,NNE,27,7.0,17.0,63,0.00,,,0.00,759.000000,,2013-03-21 17:53:00,
2013-03-21 14:01:00,20.0,7.0,-100.00,North,11,7.0,17.0,57,0.00,,,0.00,700.000000,,2013-03-21 18:01:00,
2013-03-21 14:23:00,20.0,7.0,-100.00,North,11,7.0,17.0,57,0.00,,,0.00,700.000000,,2013-03-21 18:23:00,
2013-03-21 14:32:00,20.0,7.0,-100.00,North,11,7.0,17.0,57,0.00,,,0.00,700.000000,,2013-03-21 18:32:00,
2013-03-21 14:43:00,20.0,7.0,-100.00,North,11,7.0,17.0,57,0.00,,,0.00,700.000000,,2013-03-21 18:43:00,
2013-03-21 14:52:00,20.0,7.0,-100.00,North,11,7.0,17.0,57,0.00,,,0.00,700.000000,,2013-03-21 18:52:00,
2013-03-21 15:01:00,19.0,11.0,-100.00,NNW,346,9.0,19.0,70,0.00,,,0.00,635.000000,,2013-03-21 19:01:00,
2013-03-21 15:23:00,19.0,11.0,-100.00,NNW,346,9.0,19.0,70,0.00,,,0.00,635.000000,,2013-03-21 19:23:00,
2013-03-21 15:32:00,19.0,11.0,-100.00,NNW,346,9.0,19.0,70,0.00,,,0.00,635.000000,,2013-03-21 19:32:00,
2013-03-21 15:43:00,19.0,11.0,-100.00,NNW,346,9.0,19.0,70,0.00,,,0.00,635.000000,,2013-03-21 19:43:00,
2013-03-21 15:53:00,19.0,11.0,-100.00,NNW,346,9.0,19.0,70,0.00,,,0.00,635.000000,,2013-03-21 19:53:00,
2013-03-21 16:01:00,18.0,13.0,-100.00,NNE,26,8.0,17.0,80,0.00,,,0.00,491.000000,,2013-03-21 20:01:00,
2013-03-21 16:33:00,18.0,13.0,-100.00,NNE,26,8.0,17.0,80,0.00,,,0.00,491.000000,,2013-03-21 20:33:00,
2013-03-21 16:43:00,18.0,13.0,-100.00,NNE,26,8.0,17.0,80,0.00,,,0.00,491.000000,,2013-03-21 20:43:00,
2013-03-21 16:53:00,18.0,13.0,-100.00,NNE,26,8.0,17.0,80,0.00,,,0.00,491.000000,,2013-03-21 20:53:00,
2013-03-21 17:01:00,20.0,9.0,-100.00,NNE,23,7.0,16.0,62,0.00,,,0.00,557.000000,,2013-03-21 21:01:00,
2013-03-21 17:23:00,20.0,9.0,-100.00,NNE,23,7.0,16.0,62,0.00,,,0.00,557.000000,,2013-03-21 21:23:00,
2013-03-21 17:33:00,20.0,9.0,-100.00,NNE,23,7.0,16.0,62,0.00,,,0.00,557.000000,,2013-03-21 21:33:00,
2013-03-21 17:43:00,20.0,9.0,-100.00,NNE,23,7.0,16.0,62,0.00,,,0.00,557.000000,,2013-03-21 21:43:00,
2013-03-21 17:53:00,20.0,9.0,-100.00,NNE,23,7.0,16.0,62,0.00,,,0.00,557.000000,,2013-03-21 21:53:00,
2013-03-21 18:01:00,19.0,6.0,-100.00,North,9,9.0,18.0,57,0.00,,,0.00,456.000000,,2013-03-21 22:01:00,
2013-03-21 18:34:00,19.0,6.0,-100.00,North,9,9.0,18.0,57,0.00,,,0.00,456.000000,,2013-03-21 22:34:00,
2013-03-21 18:43:00,19.0,6.0,-100.00,North,9,9.0,18.0,57,0.00,,,0.00,456.000000,,2013-03-21 22:43:00,
2013-03-21 18:53:00,19.0,6.0,-100.00,North,9,9.0,18.0,57,0.00,,,0.00,456.000000,,2013-03-21 22:53:00,
2013-03-21 19:01:00,17.0,11.0,-100.00,North,351,6.0,14.0,76,0.00,,,0.00,147.000000,,2013-03-21 23:01:00,
2013-03-21 19:22:00,17.0,11.0,-100.00,North,351,6.0,14.0,76,0.00,,,0.00,147.000000,,2013-03-21 23:22:00,
2013-03-21 19:33:00,17.0,11.0,-100.00,North,351,6.0,14.0,76,0.00,,,0.00,147.000000,,2013-03-21 23:33:00,
2013-03-21 19:43:00,17.0,11.0,-100.00,North,351,6.0,14.0,76,0.00,,,0.00,147.000000,,2013-03-21 23:43:00,
2013-03-21 19:53:00,17.0,11.0,-100.00,North,351,6.0,14.0,76,0.00,,,0.00,147.000000,,2013-03-21 23:53:00,
2013-03-21 20:01:00,16.0,9.0,-100.00,NNE,23,5.0,19.0,74,0.00,,,0.00,12.000000,,2013-03-22 00:01:00,
2013-03-21 20:22:00,16.0,9.0,-100.00,NNE,23,5.0,19.0,74,0.00,,,0.00,12.000000,,2013-03-22 00:22:00,
2013-03-21 20:32:00,16.0,9.0,-100.00,NNE,23,5.0,19.0,74,0.00,,,0.00,12.000000,,2013-03-22 00:32:00,
2013-03-21 20:42:00,16.0,9.0,-100.00,NNE,23,5.0,19.0,74,0.00,,,0.00,12.000000,,2013-03-22 00:42:00,
2013-03-21 20:52:00,16.0,9.0,-100.00,NNE,23,5.0,19.0,74,0.00,,,0.00,12.000000,,2013-03-22 00:52:00,
2013-03-21 21:01:00,15.0,8.0,-100.00,NNE,15,6.0,16.0,72,0.00,,,0.00,0.000000,,2013-03-22 01:01:00,
2013-03-21 21:33:00,15.0,8.0,-100.00,NNE,15,6.0,16.0,72,0.00,,,0.00,0.000000,,2013-03-22 01:33:00,
2013-03-21 21:43:00,15.0,8.0,-100.00,NNE,15,6.0,16.0,72,0.00,,,0.00,0.000000,,2013-03-22 01:43:00,
2013-03-21 21:53:00,15.0,8.0,-100.00,NNE,15,6.0,16.0,72,0.00,,,0.00,0.000000,,2013-03-22 01:53:00,
2013-03-21 22:01:00,14.0,6.0,-100.00,North,11,6.0,14.0,69,0.00,,,0.00,0.000000,,2013-03-22 02:01:00,
2013-03-21 22:32:00,14.0,6.0,-100.00,North,11,6.0,14.0,69,0.00,,,0.00,0.000000,,2013-03-22 02:32:00,
2013-03-21 22:43:00,14.0,6.0,-100.00,North,11,6.0,14.0,69,0.00,,,0.00,0.000000,,2013-03-22 02:43:00,
2013-03-21 22:53:00,14.0,6.0,-100.00,North,11,6.0,14.0,69,0.00,,,0.00,0.000000,,2013-03-22 02:53:00,
2013-03-21 23:01:00,14.0,6.0,-100.00,NNE,20,5.0,14.0,70,0.00,,,0.00,0.000000,,2013-03-22 03:01:00,
2013-03-21 23:33:00,14.0,6.0,-100.00,NNE,20,5.0,14.0,70,0.00,,,0.00,0.000000,,2013-03-22 03:33:00,
2013-03-21 23:43:00,14.0,6.0,-100.00,NNE,20,5.0,14.0,70,0.00,,,0.00,0.000000,,2013-03-22 03:43:00,
2013-03-21 23:53:00,14.0,6.0,-100.00,NNE,20,5.0,14.0,70,0.00,,,0.00,0.000000,,2013-03-22 03:53:00,